x

Cape Cleare - 17 Nm South Of Montague Is, Ak (46076) Wave Buoy

8:50am - Mon 24th Jul 2017 All times are AKDT. -8 hours from GMT.

  • Sig Wave height 3.0ft
  • Swell Direction
  • Peak Period 13s
  • Average Period 7s
  • Wind
    9mph, 11mph gusts
  • Sea Temp 54°f
  • Air Temp 55°f
  • Sea Pressure 1022.7mb
  • Cape Cleare - 17 Nm South Of Montague Is,  Ak
  • Cape Cleare - 17 Nm South Of Montague Is,  Ak

More Historic Weather Station data

Upgrade to MSW Pro to gain access to the past 30 days of data for over 8000 Wavebouys and Weather Stations around the globe.

Join Pro

Comparision Forecast

View Surf forecast
   
Mon 07/24 8:50am 3ft 13s 7s 9 11 mph 1022.7mb 54f 55f
7:50am 3ft 11s 7s 9 9 mph 1022.7mb 55f 56f
6:50am 3ft 11s 7s 9 9 mph 1022.8mb 55f 55f
5:50am 2.5ft 12s 6s 7 9 mph 1023mb 55f 55f
4:50am 2.5ft 14s 6s 9 11 mph 1023mb 55f 55f
3:50am 2.5ft 12s  -  9 11 mph 1023.3mb 55f 55f
2:50am 2.5ft 13s 7s 7 9 mph 1023.6mb 55f 55f
1:50am 2.5ft 8s 6s 7 7 mph 1023.8mb 56f 55f
12:50am 2.5ft 13s 7s 4 7 mph 1024.2mb 56f 55f
Sun 07/23 11:50pm 3ft 8s 7s 7 7 mph 1024.2mb 56f 55f
10:50pm 3.5ft 14s 7s 4 4 mph 1024mb 56f 55f
9:50pm 3ft 8s 7s 4 7 mph 1023.9mb 56f 56f
8:50pm 3.5ft 11s 7s 7 9 mph 1024mb 56f 57f
7:50pm 3.5ft 8s 6s 4 7 mph 1024.1mb 56f 57f
6:50pm 3.5ft 13s 6s 7 9 mph 1024.3mb 56f 57f
5:50pm 3.5ft 8s 6s 7 7 mph 1024.5mb 56f 56f
4:50pm 3.5ft 8s 6s 4 7 mph 1024.5mb 56f 56f
3:50pm 3ft 8s 6s 4 4 mph 1024.5mb 56f 56f
2:50pm 3ft 8s 6s 4 4 mph 1024.6mb 56f 56f
1:50pm 3ft 8s 6s 4 7 mph 1024.6mb 56f 55f
12:50pm 3ft 12s 6s 4 7 mph 1024.5mb 56f 55f
11:50am 3ft 8s 6s 4 4 mph 1024.1mb 56f 55f
10:50am 3ft 8s 6s 7 7 mph 1023.8mb 55f 55f
9:50am 3.5ft 8s 6s 4 4 mph 1023.5mb 55f 55f
8:50am 3.5ft 8s 6s 2 2 mph 1023.2mb 55f 55f
7:50am 3.5ft 8s 6s 2 4 mph 1022.7mb 55f 55f
6:50am 3.5ft 8s 6s 4 7 mph 1022.2mb 55f 54f
5:50am 3.5ft 8s 6s 2 4 mph 1021.4mb 55f 54f
4:50am 3.5ft 8s 6s 7 9 mph 1020.9mb 55f 55f
3:50am 3.5ft 8s 6s 9 11 mph 1020mb 55f 55f
2:50am 3.5ft 13s 5s 11 11 mph 1019.4mb 54f 55f
1:50am 3.5ft 8s 6s 9 9 mph 1018.8mb 55f 55f
12:50am 3.5ft 12s 6s 11 13 mph 1018mb 54f 55f
Sat 07/22 11:50pm 3.5ft 8s 6s 11 11 mph 1017.5mb 54f 55f
10:50pm 3.5ft 8s 6s 9 11 mph 1017mb 55f 55f
9:50pm 4ft 8s 6s 11 13 mph 1016.4mb 55f 55f
8:50pm 4ft 8s 6s 11 13 mph 1015.8mb 55f 56f
7:50pm 3.5ft 8s 6s 11 16 mph 1015.4mb 55f 56f
6:50pm 3.5ft 8s 5s 13 13 mph 1014.9mb 55f 56f
5:50pm 3.5ft 9s 6s 13 16 mph 1014.3mb 55f 56f
4:50pm 4ft 8s 5s 11 13 mph 1014.1mb 55f 56f
3:50pm 4ft 9s 6s 13 16 mph 1013.4mb 55f 55f
2:50pm 4.5ft 8s 6s 13 16 mph 1013.1mb 55f 55f
1:50pm 4.5ft 9s 6s 13 16 mph 1012.7mb 55f 55f
12:50pm 4.5ft 8s 7s 11 13 mph 1012.4mb 55f 55f
11:50am 4.5ft 8s 7s 11 13 mph 1012.2mb 54f 55f
10:50am 4.5ft 8s 7s 11 13 mph 1012mb 54f 55f
9:50am 4.5ft 8s 7s 11 11 mph 1011.9mb 54f 55f
8:50am 5ft 8s 7s 11 11 mph 1011.7mb 54f 55f
7:50am 4.5ft 9s 7s 11 13 mph 1011.6mb 54f 55f
6:50am 4ft 8s 7s 9 11 mph 1011.6mb 54f 55f
5:50am 4ft 8s 7s 9 11 mph 1011.7mb 54f 54f
4:50am 4.5ft 8s 7s 9 9 mph 1011.8mb 54f 54f
3:50am 5ft 8s 7s 7 9 mph 1012mb 54f 54f
2:50am 4.5ft 8s 7s 4 7 mph 1012.1mb 54f 54f
1:50am 5ft 8s 7s 7 7 mph 1012.2mb 54f 54f
12:50am 5ft 8s 7s 4 7 mph 1012.4mb 55f 54f
Fri 07/21 11:50pm 5ft 8s 7s 4 7 mph 1012.4mb 55f 55f
10:50pm 4.5ft 8s 7s 4 4 mph 1012.3mb 55f 55f
9:50pm 4.5ft 8s 6s 2 4 mph 1012.2mb 55f 55f
8:50pm 4.5ft 7s 6s 2 2 mph 1012.3mb 55f 55f
7:50pm 4.5ft 8s 6s 2 4 mph 1012.3mb 55f 55f
6:50pm 4.5ft 8s 6s 4 7 mph 1012.5mb 55f 56f
5:50pm 4.5ft 8s 6s 7 9 mph 1012.8mb 55f 56f
4:50pm 4.5ft 8s 6s 9 9 mph 1013.2mb 55f 56f
3:50pm 4.5ft 8s 6s 7 9 mph 1013.4mb 54f 55f
2:50pm 5ft 8s 6s 7 7 mph 1013.6mb 54f 55f
1:50pm 5ft 8s 6s 11 11 mph 1013.7mb 54f 55f
12:50pm 5ft 8s 6s 11 13 mph 1013.7mb 54f 55f
11:50am 5ft 8s 6s 11 13 mph 1013.7mb 53f 55f
10:50am 5ft 8s 6s 11 13 mph 1013.7mb 53f 55f
9:50am 5.5ft 8s 6s 13 16 mph 1013.6mb 53f 55f
8:50am 5ft 8s 5s 13 16 mph 1013.6mb 53f 55f
7:50am 5ft 8s 5s 16 18 mph 1013.6mb 53f 55f
6:50am 5ft 8s 5s 16 18 mph 1013.4mb 53f 54f
5:50am 5.5ft 8s 6s 16 18 mph 1013.4mb 53f 54f
4:50am 6ft 7s 6s 16 18 mph 1013.4mb 53f 55f
3:50am 6ft 8s 6s 16 18 mph 1013.6mb 53f 54f
2:50am 5.5ft 9s 6s 16 18 mph 1013.6mb 53f 54f
1:50am 6ft 8s 6s 13 16 mph 1013.5mb 53f 54f
12:50am 6ft 9s 6s 13 16 mph 1013.3mb 53f 54f
Thu 07/20 11:50pm 6ft 8s 6s 13 20 mph 1013mb 53f 54f
10:50pm 6ft 8s 6s 18 20 mph 1012.7mb 53f 54f
9:50pm 6ft 8s 6s 18 22 mph 1012.2mb 53f 55f
8:50pm 5.5ft 8s 5s 16 20 mph 1012.2mb 53f 55f
7:50pm 6ft 8s 6s 16 18 mph 1012.2mb 53f 55f
6:50pm 6ft 8s 5s 18 20 mph 1012.2mb 53f 55f